createdAt,value
2023-05-24T00:00:23.159Z,1015.41
2023-05-24T00:01:23.118Z,1015.43
2023-05-24T00:02:23.213Z,1015.43
2023-05-24T00:03:23.234Z,1015.47
2023-05-24T00:04:23.231Z,1015.45
2023-05-24T00:05:22.978Z,1015.48
2023-05-24T00:06:22.948Z,1015.48
2023-05-24T00:07:22.917Z,1015.50
2023-05-24T00:08:22.948Z,1015.51
2023-05-24T00:09:22.850Z,1015.50
2023-05-24T00:10:22.824Z,1015.47
2023-05-24T00:11:22.788Z,1015.50
2023-05-24T00:12:22.762Z,1015.49
2023-05-24T00:13:22.718Z,1015.50
2023-05-24T00:14:22.739Z,1015.53
2023-05-24T00:15:22.667Z,1015.50
2023-05-24T00:16:22.700Z,1015.59
2023-05-24T00:17:22.635Z,1015.50
2023-05-24T00:18:22.604Z,1015.52
2023-05-24T00:19:22.534Z,1015.53
2023-05-24T00:20:22.525Z,1015.56
2023-05-24T00:21:22.458Z,1015.57
2023-05-24T00:22:22.424Z,1015.59
2023-05-24T00:23:22.459Z,1015.64
2023-05-24T00:24:22.363Z,1015.59
2023-05-24T00:25:22.341Z,1015.63
2023-05-24T00:26:22.318Z,1015.63
2023-05-24T00:27:22.249Z,1015.61
2023-05-24T00:28:22.208Z,1015.62
2023-05-24T00:29:22.254Z,1015.58
2023-05-24T00:30:22.152Z,1015.62
2023-05-24T00:31:22.134Z,1015.60
2023-05-24T00:32:22.104Z,1015.61
2023-05-24T00:33:22.059Z,1015.64
2023-05-24T00:34:22.026Z,1015.60
2023-05-24T00:35:22.047Z,1015.62
2023-05-24T00:36:21.964Z,1015.58
2023-05-24T00:37:21.919Z,1015.60
2023-05-24T00:38:21.897Z,1015.55
2023-05-24T00:39:21.857Z,1015.55
2023-05-24T00:40:21.833Z,1015.57
2023-05-24T00:41:21.852Z,1015.54
2023-05-24T00:42:21.760Z,1015.50
2023-05-24T00:43:21.750Z,1015.50
2023-05-24T00:44:21.710Z,1015.50
2023-05-24T00:45:21.664Z,1015.46
2023-05-24T00:46:21.652Z,1015.51
2023-05-24T00:47:21.697Z,1015.48
2023-05-24T00:48:21.562Z,1015.52
2023-05-24T00:49:21.523Z,1015.50
2023-05-24T00:50:21.501Z,1015.50
2023-05-24T00:51:21.542Z,1015.49
2023-05-24T00:52:21.476Z,1015.51
2023-05-24T00:53:21.405Z,1015.51
2023-05-24T00:54:21.363Z,1015.51
2023-05-24T00:55:21.319Z,1015.53
2023-05-24T00:56:21.301Z,1015.53
2023-05-24T00:57:21.326Z,1015.54
2023-05-24T00:58:21.232Z,1015.57
2023-05-24T00:59:21.198Z,1015.53
2023-05-24T01:00:21.175Z,1015.56
2023-05-24T01:01:21.819Z,1015.56
2023-05-24T01:02:21.706Z,1015.55
2023-05-24T01:03:21.192Z,1015.53
2023-05-24T01:04:21.032Z,1015.53
2023-05-24T01:05:21.023Z,1015.59
2023-05-24T01:06:20.985Z,1015.51
2023-05-24T01:07:20.947Z,1015.56
2023-05-24T01:08:20.912Z,1015.55
2023-05-24T01:09:20.938Z,1015.58
2023-05-24T01:10:20.843Z,1015.58
2023-05-24T01:11:22.683Z,1015.56
2023-05-24T01:12:20.798Z,1015.59
2023-05-24T01:13:20.735Z,1015.59
2023-05-24T01:14:20.784Z,1015.56
2023-05-24T01:15:20.705Z,1015.58
2023-05-24T01:16:20.682Z,1015.58
2023-05-24T01:17:20.611Z,1015.56
2023-05-24T01:18:21.185Z,1015.55
2023-05-24T01:19:20.551Z,1015.52
2023-05-24T01:20:20.656Z,1015.56
2023-05-24T01:21:20.471Z,1015.57
2023-05-24T01:22:20.441Z,1015.58
2023-05-24T01:23:20.413Z,1015.58
2023-05-24T01:24:20.417Z,1015.61
2023-05-24T01:25:20.346Z,1015.58
2023-05-24T01:26:20.378Z,1015.61
2023-05-24T01:27:20.270Z,1015.59
2023-05-24T01:28:20.242Z,1015.57
2023-05-24T01:29:20.209Z,1015.60
2023-05-24T01:30:20.214Z,1015.59
2023-05-24T01:31:20.229Z,1015.63
2023-05-24T01:32:20.238Z,1015.58
2023-05-24T01:33:20.155Z,1015.59
2023-05-24T01:34:20.054Z,1015.64
2023-05-24T01:35:20.016Z,1015.61
2023-05-24T01:36:20.003Z,1015.61
2023-05-24T01:37:19.944Z,1015.62
2023-05-24T01:38:19.908Z,1015.60
2023-05-24T01:39:19.933Z,1015.64
2023-05-24T01:40:19.898Z,1015.62
2023-05-24T01:41:19.814Z,1015.60
2023-05-24T01:42:19.783Z,1015.61
2023-05-24T01:43:20.303Z,1015.61
2023-05-24T01:44:19.876Z,1015.56
2023-05-24T01:45:19.689Z,1015.58
2023-05-24T01:46:19.693Z,1015.59
2023-05-24T01:47:19.627Z,1015.58
2023-05-24T01:48:19.643Z,1015.55
2023-05-24T01:49:19.545Z,1015.58
2023-05-24T01:50:19.588Z,1015.57
2023-05-24T01:51:19.489Z,1015.59
2023-05-24T01:52:19.501Z,1015.56
2023-05-24T01:53:19.422Z,1015.54
2023-05-24T01:54:19.390Z,1015.56
2023-05-24T01:55:19.350Z,1015.59
2023-05-24T01:56:19.378Z,1015.58
2023-05-24T01:57:19.285Z,1015.59
2023-05-24T01:58:19.253Z,1015.59
2023-05-24T01:59:19.289Z,1015.61
2023-05-24T02:00:19.232Z,1015.58
2023-05-24T02:01:19.196Z,1015.61
2023-05-24T02:02:19.173Z,1015.59
2023-05-24T02:03:19.109Z,1015.60
2023-05-24T02:04:19.058Z,1015.58
2023-05-24T02:05:19.084Z,1015.56
2023-05-24T02:06:19.014Z,1015.60
2023-05-24T02:07:18.951Z,1015.61
2023-05-24T02:08:18.923Z,1015.61
2023-05-24T02:09:18.888Z,1015.59
2023-05-24T02:10:18.982Z,1015.55
2023-05-24T02:11:18.834Z,1015.54
2023-05-24T02:12:18.801Z,1015.58
2023-05-24T02:13:18.766Z,1015.53
2023-05-24T02:14:18.732Z,1015.57
2023-05-24T02:15:18.748Z,1015.56
2023-05-24T02:16:18.726Z,1015.56
2023-05-24T02:17:18.631Z,1015.52
2023-05-24T02:18:18.635Z,1015.50
2023-05-24T02:19:18.564Z,1015.48
2023-05-24T02:20:18.635Z,1015.53
2023-05-24T02:21:18.498Z,1015.61
2023-05-24T02:22:18.465Z,1015.55
2023-05-24T02:23:18.436Z,1015.54
2023-05-24T02:24:18.404Z,1015.57
2023-05-24T02:25:18.367Z,1015.58
2023-05-24T02:26:18.399Z,1015.59
2023-05-24T02:27:18.303Z,1015.60
2023-05-24T02:28:18.265Z,1015.59
2023-05-24T02:29:18.232Z,1015.63
2023-05-24T02:30:18.200Z,1015.63
2023-05-24T02:31:18.186Z,1015.61
2023-05-24T02:32:18.198Z,1015.62
2023-05-24T02:33:18.107Z,1015.60
2023-05-24T02:34:18.072Z,1015.56
2023-05-24T02:35:18.031Z,1015.60
2023-05-24T02:36:18.004Z,1015.59
2023-05-24T02:37:17.971Z,1015.58
2023-05-24T02:38:17.996Z,1015.57
2023-05-24T02:39:17.902Z,1015.59
2023-05-24T02:40:17.898Z,1015.50
2023-05-24T02:41:17.859Z,1015.54
2023-05-24T02:42:17.807Z,1015.53
2023-05-24T02:43:17.772Z,1015.51
2023-05-24T02:44:17.813Z,1015.55
2023-05-24T02:45:17.719Z,1015.50
2023-05-24T02:46:17.689Z,1015.49
2023-05-24T02:47:18.315Z,1015.51
2023-05-24T02:48:17.642Z,1015.54
2023-05-24T02:49:17.565Z,1015.54
2023-05-24T02:50:17.604Z,1015.54
2023-05-24T02:51:17.501Z,1015.54
2023-05-24T02:52:17.475Z,1015.53
2023-05-24T02:53:17.457Z,1015.51
2023-05-24T02:54:17.411Z,1015.54
2023-05-24T02:55:17.372Z,1015.52
2023-05-24T02:56:17.416Z,1015.54
2023-05-24T02:57:17.312Z,1015.54
2023-05-24T02:58:17.276Z,1015.55
2023-05-24T02:59:17.250Z,1015.56
2023-05-24T03:00:17.230Z,1015.56
2023-05-24T03:01:17.233Z,1015.56
2023-05-24T03:02:17.202Z,1015.56
2023-05-24T03:03:17.171Z,1015.54
2023-05-24T03:04:17.077Z,1015.59
2023-05-24T03:05:17.042Z,1015.57
2023-05-24T03:06:17.016Z,1015.60
2023-05-24T03:07:17.095Z,1015.60
2023-05-24T03:08:16.947Z,1015.57
2023-05-24T03:09:16.934Z,1015.59
2023-05-24T03:10:16.869Z,1015.56
2023-05-24T03:11:17.815Z,1015.58
2023-05-24T03:12:16.869Z,1015.58
2023-05-24T03:13:16.781Z,1015.61
2023-05-24T03:14:16.757Z,1015.57
2023-05-24T03:15:16.711Z,1015.58
2023-05-24T03:16:16.724Z,1015.60
2023-05-24T03:17:16.696Z,1015.61
2023-05-24T03:18:16.613Z,1015.62
2023-05-24T03:19:16.613Z,1015.65
2023-05-24T03:20:16.570Z,1015.64
2023-05-24T03:21:16.584Z,1015.62
2023-05-24T03:22:16.573Z,1015.64
2023-05-24T03:23:16.439Z,1015.64
2023-05-24T03:24:17.212Z,1015.61
2023-05-24T03:25:16.398Z,1015.63
2023-05-24T03:26:16.354Z,1015.62
2023-05-24T03:27:16.378Z,1015.61
2023-05-24T03:28:16.293Z,1015.61
2023-05-24T03:29:16.256Z,1015.61
2023-05-24T03:30:16.229Z,1015.64
2023-05-24T03:31:16.189Z,1015.65
2023-05-24T03:32:16.158Z,1015.61
2023-05-24T03:33:16.213Z,1015.62
2023-05-24T03:34:16.827Z,1015.64
2023-05-24T03:35:16.061Z,1015.68
2023-05-24T03:36:16.017Z,1015.69
2023-05-24T03:37:15.995Z,1015.70
2023-05-24T03:38:15.965Z,1015.72
2023-05-24T03:39:15.983Z,1015.74
2023-05-24T03:40:15.900Z,1015.74
2023-05-24T03:41:15.858Z,1015.76
2023-05-24T03:42:15.834Z,1015.78
2023-05-24T03:43:15.804Z,1015.79
2023-05-24T03:44:15.776Z,1015.83
2023-05-24T03:45:21.501Z,1015.83
2023-05-24T03:46:15.731Z,1015.85
2023-05-24T03:47:15.670Z,1015.87
2023-05-24T03:48:15.622Z,1015.86
2023-05-24T03:49:15.654Z,1015.84
2023-05-24T03:50:15.557Z,1015.84
2023-05-24T03:51:15.529Z,1015.89
2023-05-24T03:52:15.512Z,1015.86
2023-05-24T03:53:15.469Z,1015.87
2023-05-24T03:54:15.491Z,1015.87
2023-05-24T03:55:15.390Z,1015.89
2023-05-24T03:56:15.367Z,1015.94
2023-05-24T03:57:15.347Z,1015.91
2023-05-24T03:58:15.302Z,1015.91
2023-05-24T03:59:15.262Z,1015.90
2023-05-24T04:00:15.278Z,1015.88
2023-05-24T04:03:07.874Z,1015.93
2023-05-24T04:03:46.863Z,1015.88
2023-05-24T04:04:46.729Z,1015.92
2023-05-24T04:05:46.826Z,1015.90
2023-05-24T04:06:46.655Z,1015.89
2023-05-24T04:07:46.673Z,1015.84
2023-05-24T04:08:46.599Z,1015.88
2023-05-24T04:09:46.561Z,1015.88
2023-05-24T04:10:46.579Z,1015.90
2023-05-24T04:11:46.568Z,1015.96
2023-05-24T04:12:46.479Z,1015.95
2023-05-24T04:13:46.428Z,1015.93
2023-05-24T04:14:52.311Z,1015.98
2023-05-24T04:15:46.355Z,1015.94
2023-05-24T04:16:46.407Z,1015.95
2023-05-24T04:17:49.332Z,1015.96
2023-05-24T04:18:46.367Z,1015.95
2023-05-24T04:19:46.231Z,1015.94
2023-05-24T04:20:46.202Z,1015.95
2023-05-24T04:21:46.228Z,1015.95
2023-05-24T04:22:46.209Z,1016.00
2023-05-24T04:23:46.111Z,1015.97
2023-05-24T04:24:46.083Z,1016.02
2023-05-24T04:25:46.031Z,1016.02
2023-05-24T04:26:46.006Z,1016.04
2023-05-24T04:27:45.967Z,1016.05
2023-05-24T04:28:45.987Z,1016.07
2023-05-24T04:29:45.896Z,1016.05
2023-05-24T04:30:45.863Z,1016.09
2023-05-24T04:31:46.841Z,1016.10
2023-05-24T04:32:45.826Z,1016.08
2023-05-24T04:33:45.778Z,1016.10
2023-05-24T04:34:46.016Z,1016.15
2023-05-24T04:35:45.713Z,1016.08
2023-05-24T04:36:45.693Z,1016.09
2023-05-24T04:37:45.663Z,1016.08
2023-05-24T04:38:45.616Z,1016.12
2023-05-24T04:39:45.591Z,1016.10
2023-05-24T04:40:45.620Z,1016.10
2023-05-24T04:41:45.528Z,1016.09
2023-05-24T04:42:45.480Z,1016.15
2023-05-24T04:43:45.471Z,1016.13
2023-05-24T04:44:45.412Z,1016.13
2023-05-24T04:45:45.437Z,1016.13
2023-05-24T04:46:45.401Z,1016.16
2023-05-24T04:47:45.392Z,1016.18
2023-05-24T04:48:45.281Z,1016.19
2023-05-24T04:49:45.247Z,1016.19
2023-05-24T04:50:45.215Z,1016.19
2023-05-24T04:51:45.289Z,1016.17
2023-05-24T04:52:45.221Z,1016.16
2023-05-24T04:53:45.114Z,1016.20
2023-05-24T04:54:45.081Z,1016.21
2023-05-24T04:55:45.046Z,1016.18
2023-05-24T04:56:45.026Z,1016.26
2023-05-24T04:57:45.041Z,1016.25
2023-05-24T04:58:44.952Z,1016.28
2023-05-24T04:59:45.010Z,1016.30
2023-05-24T05:00:44.905Z,1016.29
2023-05-24T05:01:44.896Z,1016.29
2023-05-24T05:02:44.895Z,1016.30
2023-05-24T05:03:44.877Z,1016.34
2023-05-24T05:04:44.902Z,1016.34
2023-05-24T05:05:44.742Z,1016.35
2023-05-24T05:06:44.701Z,1016.40
2023-05-24T05:07:44.662Z,1016.36
2023-05-24T05:08:44.627Z,1016.36
2023-05-24T05:09:44.594Z,1016.37
2023-05-24T05:10:44.648Z,1016.36
2023-05-24T05:11:44.518Z,1016.32
2023-05-24T05:12:44.493Z,1016.31
2023-05-24T05:13:44.462Z,1016.37
2023-05-24T05:14:44.431Z,1016.39
2023-05-24T05:15:44.393Z,1016.38
2023-05-24T05:16:44.427Z,1016.41
2023-05-24T05:17:44.369Z,1016.42
2023-05-24T05:18:44.299Z,1016.45
2023-05-24T05:19:44.258Z,1016.39
2023-05-24T05:20:44.419Z,1016.44
2023-05-24T05:21:44.253Z,1016.43
2023-05-24T05:22:44.155Z,1016.42
2023-05-24T05:23:44.131Z,1016.45
2023-05-24T05:24:44.091Z,1016.44
2023-05-24T05:25:44.062Z,1016.43
2023-05-24T05:26:44.084Z,1016.42
2023-05-24T05:27:44.010Z,1016.43
2023-05-24T05:28:44.028Z,1016.45
2023-05-24T05:29:43.935Z,1016.43
2023-05-24T05:30:44.058Z,1016.44
2023-05-24T05:31:43.886Z,1016.51
2023-05-24T05:32:44.001Z,1016.48
2023-05-24T05:33:43.805Z,1016.52
2023-05-24T05:34:43.772Z,1016.54
2023-05-24T05:35:43.744Z,1016.55
2023-05-24T05:36:43.709Z,1016.56
2023-05-24T05:37:43.674Z,1016.63
2023-05-24T05:38:43.715Z,1016.60
2023-05-24T05:39:43.614Z,1016.60
2023-05-24T05:40:43.697Z,1016.60
2023-05-24T05:41:46.629Z,1016.58
2023-05-24T05:42:43.517Z,1016.64
2023-05-24T05:43:43.497Z,1016.63
2023-05-24T05:44:43.509Z,1016.62
2023-05-24T05:45:43.495Z,1016.60
2023-05-24T05:46:43.386Z,1016.56
2023-05-24T05:47:43.420Z,1016.60
2023-05-24T05:48:46.215Z,1016.57
2023-05-24T05:49:43.368Z,1016.61
2023-05-24T05:50:43.447Z,1016.61
2023-05-24T05:51:43.218Z,1016.60
2023-05-24T05:52:43.190Z,1016.67
2023-05-24T05:53:43.156Z,1016.69
2023-05-24T05:54:43.179Z,1016.72
2023-05-24T05:55:43.100Z,1016.72
2023-05-24T05:56:43.054Z,1016.71
2023-05-24T05:57:43.038Z,1016.71
2023-05-24T05:58:43.003Z,1016.74
2023-05-24T05:59:42.960Z,1016.76
2023-05-24T06:00:43.047Z,1016.77
2023-05-24T06:01:42.899Z,1016.76
2023-05-24T06:02:42.909Z,1016.79
2023-05-24T06:03:43.184Z,1016.79
2023-05-24T06:04:42.855Z,1016.80
2023-05-24T06:05:42.780Z,1016.82
2023-05-24T06:06:42.816Z,1016.85
2023-05-24T06:07:42.706Z,1016.87
2023-05-24T06:08:42.680Z,1016.87
2023-05-24T06:09:42.726Z,1016.89
2023-05-24T06:10:42.867Z,1016.88
2023-05-24T06:11:42.575Z,1016.96
2023-05-24T06:12:42.601Z,1016.97
2023-05-24T06:13:42.514Z,1016.97
2023-05-24T06:14:42.486Z,1016.99
2023-05-24T06:15:42.472Z,1017.00
2023-05-24T06:16:42.481Z,1017.02
2023-05-24T06:17:42.485Z,1017.01
2023-05-24T06:18:50.024Z,1017.03
2023-05-24T06:19:42.334Z,1016.98
2023-05-24T06:20:42.553Z,1017.02
2023-05-24T06:21:42.250Z,1016.98
2023-05-24T06:22:42.228Z,1016.98
2023-05-24T06:23:42.188Z,1016.96
2023-05-24T06:24:42.221Z,1016.95
2023-05-24T06:25:42.127Z,1016.98
2023-05-24T06:26:42.116Z,1017.01
2023-05-24T06:27:42.062Z,1017.00
2023-05-24T06:28:42.050Z,1017.02
2023-05-24T06:29:42.085Z,1017.05
2023-05-24T06:30:42.230Z,1017.08
2023-05-24T06:31:41.977Z,1017.12
2023-05-24T06:32:41.958Z,1017.08
2023-05-24T06:33:46.776Z,1017.07
2023-05-24T06:34:41.997Z,1017.07
2023-05-24T06:35:41.820Z,1017.12
2023-05-24T06:36:41.782Z,1017.11
2023-05-24T06:37:41.741Z,1017.15
2023-05-24T06:38:41.714Z,1017.15
2023-05-24T06:39:41.682Z,1017.19
2023-05-24T06:40:41.942Z,1017.23
2023-05-24T06:41:41.634Z,1017.19
2023-05-24T06:42:41.603Z,1017.18
2023-05-24T06:43:41.587Z,1017.14
2023-05-24T06:44:41.534Z,1017.16
2023-05-24T06:45:41.577Z,1017.17
2023-05-24T06:46:41.535Z,1017.13
2023-05-24T06:47:41.488Z,1017.13
2023-05-24T06:48:41.494Z,1017.14
2023-05-24T06:49:41.406Z,1017.16
2023-05-24T06:50:42.826Z,1017.20
2023-05-24T06:51:41.303Z,1017.20
2023-05-24T06:52:41.327Z,1017.18
2023-05-24T06:53:41.245Z,1017.21
2023-05-24T06:54:41.220Z,1017.23
2023-05-24T06:55:41.261Z,1017.22
2023-05-24T06:56:41.140Z,1017.24
2023-05-24T06:57:41.122Z,1017.25
2023-05-24T06:58:41.141Z,1017.26
2023-05-24T06:59:41.113Z,1017.24
2023-05-24T07:00:41.352Z,1017.25
2023-05-24T07:01:41.107Z,1017.26
2023-05-24T07:02:40.991Z,1017.23
2023-05-24T07:03:40.927Z,1017.27
2023-05-24T07:04:41.054Z,1017.30
2023-05-24T07:05:40.867Z,1017.30
2023-05-24T07:06:40.844Z,1017.27
2023-05-24T07:07:40.812Z,1017.28
2023-05-24T07:08:40.778Z,1017.25
2023-05-24T07:09:40.739Z,1017.29
2023-05-24T07:10:41.234Z,1017.25
2023-05-24T07:11:40.707Z,1017.25
2023-05-24T07:12:40.665Z,1017.30
2023-05-24T07:13:40.617Z,1017.33
2023-05-24T07:14:40.586Z,1017.33
2023-05-24T07:15:40.564Z,1017.33
2023-05-24T07:16:40.628Z,1017.32
2023-05-24T07:17:40.538Z,1017.36
2023-05-24T07:18:40.459Z,1017.40
2023-05-24T07:19:40.420Z,1017.37
2023-05-24T07:20:40.670Z,1017.43
2023-05-24T07:21:40.377Z,1017.42
2023-05-24T07:22:40.390Z,1017.42
2023-05-24T07:23:40.296Z,1017.44
2023-05-24T07:24:40.277Z,1017.46
2023-05-24T07:25:40.251Z,1017.45
2023-05-24T07:26:40.231Z,1017.44
2023-05-24T07:27:40.178Z,1017.49
2023-05-24T07:28:40.205Z,1017.49
2023-05-24T07:29:40.116Z,1017.50
2023-05-24T07:30:40.081Z,1017.51
2023-05-24T07:31:40.155Z,1017.58
2023-05-24T07:32:40.083Z,1017.51
2023-05-24T07:33:39.991Z,1017.51
2023-05-24T07:34:40.028Z,1017.55
2023-05-24T07:35:39.957Z,1017.55
2023-05-24T07:36:39.896Z,1017.57
2023-05-24T07:37:39.882Z,1017.59
2023-05-24T07:38:39.842Z,1017.62
2023-05-24T07:39:39.815Z,1017.63
2023-05-24T07:40:39.937Z,1017.67
2023-05-24T07:41:39.748Z,1017.67
2023-05-24T07:42:39.719Z,1017.68
2023-05-24T07:43:39.694Z,1017.71
2023-05-24T07:44:39.662Z,1017.65
2023-05-24T07:45:39.778Z,1017.69
2023-05-24T07:46:39.681Z,1017.69
2023-05-24T07:47:39.610Z,1017.70
2023-05-24T07:48:39.538Z,1017.68
2023-05-24T07:49:39.507Z,1017.67
2023-05-24T07:50:39.484Z,1017.70
2023-05-24T07:51:39.456Z,1017.75
2023-05-24T07:52:39.483Z,1017.70
2023-05-24T07:53:39.415Z,1017.70
2023-05-24T07:54:39.381Z,1017.73
2023-05-24T07:55:39.329Z,1017.72
2023-05-24T07:56:39.294Z,1017.71
2023-05-24T07:57:39.262Z,1017.77
2023-05-24T07:58:39.306Z,1017.71
2023-05-24T07:59:39.202Z,1017.77
2023-05-24T08:00:39.165Z,1017.77
2023-05-24T08:01:39.154Z,1017.75
2023-05-24T08:02:39.214Z,1017.81
2023-05-24T08:03:39.981Z,1017.79
2023-05-24T08:04:39.109Z,1017.80
2023-05-24T08:05:39.022Z,1017.78
2023-05-24T08:06:39.007Z,1017.78
2023-05-24T08:07:38.964Z,1017.76
2023-05-24T08:08:38.938Z,1017.79
2023-05-24T08:09:38.963Z,1017.77
2023-05-24T08:10:38.883Z,1017.78
2023-05-24T08:11:38.844Z,1017.78
2023-05-24T08:12:38.813Z,1017.85
2023-05-24T08:13:38.783Z,1017.83
2023-05-24T08:14:38.744Z,1017.84
2023-05-24T08:15:38.775Z,1017.85
2023-05-24T08:16:38.712Z,1017.85
2023-05-24T08:17:38.777Z,1017.85
2023-05-24T08:18:38.630Z,1017.89
2023-05-24T08:19:38.652Z,1017.96
2023-05-24T08:20:38.813Z,1017.93
2023-05-24T08:21:38.590Z,1017.93
2023-05-24T08:22:38.620Z,1017.96
2023-05-24T08:23:38.487Z,1017.96
2023-05-24T08:24:38.449Z,1017.97
2023-05-24T08:25:38.420Z,1017.93
2023-05-24T08:26:38.391Z,1017.95
2023-05-24T08:27:38.422Z,1017.92
2023-05-24T08:28:38.438Z,1017.95
2023-05-24T08:29:38.345Z,1017.90
2023-05-24T08:30:38.275Z,1017.94
2023-05-24T08:31:38.287Z,1017.90
2023-05-24T08:32:38.408Z,1017.93
2023-05-24T08:33:38.243Z,1017.89
2023-05-24T08:34:38.168Z,1017.91
2023-05-24T08:35:38.325Z,1017.94
2023-05-24T08:36:38.099Z,1017.97
2023-05-24T08:37:38.072Z,1017.96
2023-05-24T08:38:38.037Z,1017.97
2023-05-24T08:39:38.072Z,1017.97
2023-05-24T08:40:37.994Z,1018.00
2023-05-24T08:41:37.950Z,1018.02
2023-05-24T08:42:37.938Z,1018.02
2023-05-24T08:43:37.913Z,1017.99
2023-05-24T08:44:37.891Z,1017.99
2023-05-24T08:45:37.999Z,1017.99
2023-05-24T08:46:37.856Z,1017.98
2023-05-24T08:47:37.804Z,1018.00
2023-05-24T08:48:37.850Z,1017.99
2023-05-24T08:49:37.721Z,1018.04
2023-05-24T08:50:37.692Z,1018.01
2023-05-24T08:51:37.827Z,1018.02
2023-05-24T08:52:37.661Z,1018.02
2023-05-24T08:53:37.623Z,1018.04
2023-05-24T08:54:37.600Z,1018.06
2023-05-24T08:55:37.563Z,1018.01
2023-05-24T08:56:37.563Z,1018.04
2023-05-24T08:57:37.555Z,1018.06
2023-05-24T08:58:37.471Z,1018.12
2023-05-24T08:59:37.459Z,1018.06
2023-05-24T09:00:37.418Z,1018.13
2023-05-24T09:01:37.405Z,1018.15
2023-05-24T09:02:37.365Z,1018.14
2023-05-24T09:03:37.758Z,1018.17
2023-05-24T09:04:37.302Z,1018.16
2023-05-24T09:05:37.276Z,1018.11
2023-05-24T09:06:37.248Z,1018.12
2023-05-24T09:07:37.372Z,1018.17
2023-05-24T09:08:37.220Z,1018.19
2023-05-24T09:09:37.218Z,1018.16
2023-05-24T09:10:49.263Z,1018.16
2023-05-24T09:11:39.380Z,1018.16
2023-05-24T09:12:38.764Z,1018.18
2023-05-24T09:13:37.041Z,1018.19
2023-05-24T09:14:37.062Z,1018.20
2023-05-24T09:15:37.006Z,1018.22
2023-05-24T09:16:37.094Z,1018.20
2023-05-24T09:17:37.120Z,1018.22
2023-05-24T09:18:36.921Z,1018.21
2023-05-24T09:19:37.479Z,1018.20
2023-05-24T09:20:37.164Z,1018.19
2023-05-24T09:21:36.820Z,1018.20
2023-05-24T09:22:39.590Z,1018.21
2023-05-24T09:23:36.775Z,1018.19
2023-05-24T09:24:36.741Z,1018.20
2023-05-24T09:25:36.708Z,1018.20
2023-05-24T09:26:36.742Z,1018.21
2023-05-24T09:27:36.652Z,1018.21
2023-05-24T09:28:36.612Z,1018.19
2023-05-24T09:29:36.601Z,1018.20
2023-05-24T09:30:36.579Z,1018.22
2023-05-24T09:31:36.562Z,1018.19
2023-05-24T09:32:36.579Z,1018.21
2023-05-24T09:33:36.465Z,1018.22
2023-05-24T09:34:36.433Z,1018.24
2023-05-24T09:35:36.399Z,1018.20
2023-05-24T09:36:36.370Z,1018.23
2023-05-24T09:37:36.347Z,1018.20
2023-05-24T09:38:36.766Z,1018.23
2023-05-24T09:39:36.307Z,1018.21
2023-05-24T09:40:36.259Z,1018.23
2023-05-24T09:41:36.225Z,1018.27
2023-05-24T09:42:36.220Z,1018.22
2023-05-24T09:43:36.244Z,1018.26
2023-05-24T09:44:36.197Z,1018.24
2023-05-24T09:45:36.102Z,1018.28
2023-05-24T09:46:36.142Z,1018.23
2023-05-24T09:47:36.057Z,1018.20
2023-05-24T09:48:36.019Z,1018.23
2023-05-24T09:49:36.060Z,1018.23
2023-05-24T09:50:36.001Z,1018.24
2023-05-24T09:51:35.994Z,1018.25
2023-05-24T09:52:36.081Z,1018.27
2023-05-24T09:53:35.890Z,1018.28
2023-05-24T09:54:35.850Z,1018.24
2023-05-24T09:55:36.047Z,1018.31
2023-05-24T09:56:36.498Z,1018.31
2023-05-24T09:57:35.770Z,1018.31
2023-05-24T09:58:35.741Z,1018.28
2023-05-24T09:59:35.724Z,1018.28
2023-05-24T10:00:35.675Z,1018.26
2023-05-24T10:01:35.880Z,1018.24
2023-05-24T10:02:41.590Z,1018.28
2023-05-24T10:03:35.762Z,1018.27
2023-05-24T10:04:35.587Z,1018.26
2023-05-24T10:05:35.570Z,1018.25
2023-05-24T10:06:35.504Z,1018.26
2023-05-24T10:07:35.548Z,1018.28
2023-05-24T10:08:35.455Z,1018.31
2023-05-24T10:09:35.428Z,1018.29
2023-05-24T10:10:35.405Z,1018.34
2023-05-24T10:11:43.045Z,1018.40
2023-05-24T10:12:35.338Z,1018.35
2023-05-24T10:13:35.594Z,1018.34
2023-05-24T10:14:35.297Z,1018.38
2023-05-24T10:15:35.257Z,1018.38
2023-05-24T10:16:36.060Z,1018.40
2023-05-24T10:17:35.236Z,1018.36
2023-05-24T10:18:35.212Z,1018.36
2023-05-24T10:19:35.199Z,1018.38
2023-05-24T10:20:35.176Z,1018.36
2023-05-24T10:21:35.240Z,1018.38
2023-05-24T10:22:35.072Z,1018.41
2023-05-24T10:23:35.038Z,1018.40
2023-05-24T10:24:35.007Z,1018.39
2023-05-24T10:25:35.070Z,1018.35
2023-05-24T10:26:34.958Z,1018.40
2023-05-24T10:27:34.921Z,1018.39
2023-05-24T10:28:34.905Z,1018.38
2023-05-24T10:29:34.876Z,1018.34
2023-05-24T10:30:34.893Z,1018.37
2023-05-24T10:31:34.884Z,1018.39
2023-05-24T10:32:34.812Z,1018.41
2023-05-24T10:33:34.770Z,1018.44
2023-05-24T10:34:34.733Z,1018.42
2023-05-24T10:35:34.707Z,1018.45
2023-05-24T10:36:34.685Z,1018.40
2023-05-24T10:37:34.706Z,1018.41
2023-05-24T10:38:34.620Z,1018.44
2023-05-24T10:39:34.654Z,1018.43
2023-05-24T10:40:34.578Z,1018.43
2023-05-24T10:41:34.581Z,1018.43
2023-05-24T10:42:34.531Z,1018.43
2023-05-24T10:43:34.482Z,1018.48
2023-05-24T10:44:34.535Z,1018.45
2023-05-24T10:45:34.431Z,1018.48
2023-05-24T10:46:34.448Z,1018.47
2023-05-24T10:47:35.381Z,1018.47
2023-05-24T10:48:34.360Z,1018.51
2023-05-24T10:49:34.330Z,1018.50
2023-05-24T10:50:34.343Z,1018.48
2023-05-24T10:51:34.285Z,1018.50
2023-05-24T10:52:34.240Z,1018.53
2023-05-24T10:53:34.215Z,1018.50
2023-05-24T10:54:34.191Z,1018.50
2023-05-24T10:55:34.198Z,1018.49
2023-05-24T10:56:34.136Z,1018.51
2023-05-24T10:57:34.133Z,1018.50
2023-05-24T10:58:34.103Z,1018.50
2023-05-24T10:59:34.047Z,1018.51
2023-05-24T11:00:48.351Z,1018.47
2023-05-24T11:01:34.174Z,1018.48
2023-05-24T11:02:34.080Z,1018.52
2023-05-24T11:03:33.984Z,1018.45
2023-05-24T11:04:33.926Z,1018.46
2023-05-24T11:05:33.925Z,1018.51
2023-05-24T11:06:34.021Z,1018.52
2023-05-24T11:07:33.837Z,1018.51
2023-05-24T11:08:33.802Z,1018.50
2023-05-24T11:09:33.817Z,1018.52
2023-05-24T11:10:33.748Z,1018.54
2023-05-24T11:11:33.731Z,1018.54
2023-05-24T11:12:33.798Z,1018.51
2023-05-24T11:13:33.703Z,1018.53
2023-05-24T11:14:33.656Z,1018.54
2023-05-24T11:15:33.630Z,1018.57
2023-05-24T11:16:33.659Z,1018.57
2023-05-24T11:17:33.618Z,1018.59
2023-05-24T11:18:33.615Z,1018.57
2023-05-24T11:19:33.554Z,1018.54
2023-05-24T11:20:33.534Z,1018.54
2023-05-24T11:21:33.475Z,1018.54
2023-05-24T11:22:33.455Z,1018.54
2023-05-24T11:23:34.469Z,1018.52
2023-05-24T11:24:33.463Z,1018.52
2023-05-24T11:25:33.380Z,1018.49
2023-05-24T11:26:33.394Z,1018.51
2023-05-24T11:27:33.350Z,1018.51
2023-05-24T11:28:33.344Z,1018.49
2023-05-24T11:29:34.322Z,1018.48
2023-05-24T11:30:33.302Z,1018.53
2023-05-24T11:31:33.283Z,1018.52
2023-05-24T11:32:33.233Z,1018.53
2023-05-24T11:33:33.185Z,1018.50
2023-05-24T11:34:33.153Z,1018.52
2023-05-24T11:35:33.132Z,1018.53
2023-05-24T11:36:33.275Z,1018.55
2023-05-24T11:37:45.521Z,1018.55
2023-05-24T11:38:33.049Z,1018.50
2023-05-24T11:39:33.061Z,1018.48
2023-05-24T11:40:33.016Z,1018.50
2023-05-24T11:41:32.981Z,1018.50
2023-05-24T11:42:33.566Z,1018.51
2023-05-24T11:43:32.943Z,1018.49
2023-05-24T11:44:32.906Z,1018.53
2023-05-24T11:45:32.893Z,1018.52
2023-05-24T11:46:32.909Z,1018.51
2023-05-24T11:47:32.893Z,1018.52
2023-05-24T11:48:32.862Z,1018.49
2023-05-24T11:49:32.787Z,1018.51
2023-05-24T11:50:39.058Z,1018.55
2023-05-24T11:51:32.844Z,1018.53
2023-05-24T11:52:32.716Z,1018.53
2023-05-24T11:53:32.748Z,1018.51
2023-05-24T11:54:32.717Z,1018.53
2023-05-24T11:55:32.649Z,1018.57
2023-05-24T11:56:33.834Z,1018.57
2023-05-24T11:57:32.597Z,1018.61
2023-05-24T11:58:32.687Z,1018.59
2023-05-24T11:59:32.553Z,1018.56
2023-05-24T12:00:32.529Z,1018.56
2023-05-24T12:01:32.500Z,1018.62
2023-05-24T12:02:32.577Z,1018.58
2023-05-24T12:03:32.676Z,1018.58
2023-05-24T12:05:32.418Z,1018.58
2023-05-24T12:06:32.374Z,1018.59
2023-05-24T12:07:32.352Z,1018.61